sensor_id;sensor_type;location;lat;lon;timestamp;pressure;altitude;pressure_sealevel;temperature;humidity
80164;BME280;69489;55.130;61.268;2023-04-19T00:01:51;99915.75;;;3.40;50.61
80164;BME280;69489;55.130;61.268;2023-04-19T00:04:17;99919.06;;;3.31;51.49
80164;BME280;69489;55.130;61.268;2023-04-19T00:06:44;99914.28;;;3.25;52.42
80164;BME280;69489;55.130;61.268;2023-04-19T00:09:11;99914.16;;;3.26;51.32
80164;BME280;69489;55.130;61.268;2023-04-19T00:11:37;99919.28;;;3.28;51.13
80164;BME280;69489;55.130;61.268;2023-04-19T00:14:03;99920.19;;;3.15;51.77
80164;BME280;69489;55.130;61.268;2023-04-19T00:16:29;99919.50;;;3.13;51.67
80164;BME280;69489;55.130;61.268;2023-04-19T00:18:55;99913.63;;;3.10;52.12
80164;BME280;69489;55.130;61.268;2023-04-19T00:21:20;99918.88;;;3.10;51.92
80164;BME280;69489;55.130;61.268;2023-04-19T00:23:46;99916.25;;;3.10;52.45
80164;BME280;69489;55.130;61.268;2023-04-19T00:26:12;99905.03;;;3.08;52.24
80164;BME280;69489;55.130;61.268;2023-04-19T00:28:40;99913.03;;;3.06;51.81
80164;BME280;69489;55.130;61.268;2023-04-19T00:31:05;99918.16;;;3.08;51.93
80164;BME280;69489;55.130;61.268;2023-04-19T00:33:31;99912.31;;;3.04;52.16
80164;BME280;69489;55.130;61.268;2023-04-19T00:35:57;99917.31;;;3.07;52.56
80164;BME280;69489;55.130;61.268;2023-04-19T00:38:23;99923.28;;;3.09;52.88
80164;BME280;69489;55.130;61.268;2023-04-19T00:40:49;99908.50;;;3.08;51.82
80164;BME280;69489;55.130;61.268;2023-04-19T00:43:18;99924.88;;;3.23;51.35
80164;BME280;69489;55.130;61.268;2023-04-19T00:45:47;99925.63;;;3.25;51.06
80164;BME280;69489;55.130;61.268;2023-04-19T00:48:14;99921.69;;;3.31;50.99
80164;BME280;69489;55.130;61.268;2023-04-19T00:50:42;99924.41;;;3.29;51.81
80164;BME280;69489;55.130;61.268;2023-04-19T00:53:10;99922.75;;;3.28;51.06
80164;BME280;69489;55.130;61.268;2023-04-19T00:55:38;99923.13;;;3.35;50.56
80164;BME280;69489;55.130;61.268;2023-04-19T00:58:07;99920.16;;;3.40;50.94
80164;BME280;69489;55.130;61.268;2023-04-19T01:00:34;99924.94;;;3.46;50.44
80164;BME280;69489;55.130;61.268;2023-04-19T01:03:00;99920.81;;;3.54;50.65
80164;BME280;69489;55.130;61.268;2023-04-19T01:05:26;99920.34;;;3.61;50.60
80164;BME280;69489;55.130;61.268;2023-04-19T01:07:52;99927.75;;;3.67;50.09
80164;BME280;69489;55.130;61.268;2023-04-19T01:10:17;99930.16;;;3.81;49.75
80164;BME280;69489;55.130;61.268;2023-04-19T01:12:43;99934.94;;;3.87;50.11
80164;BME280;69489;55.130;61.268;2023-04-19T01:15:09;99938.78;;;4.06;48.99
80164;BME280;69489;55.130;61.268;2023-04-19T01:17:35;99936.88;;;4.19;49.13
80164;BME280;69489;55.130;61.268;2023-04-19T01:20:02;99933.03;;;4.35;48.63
80164;BME280;69489;55.130;61.268;2023-04-19T01:22:28;99932.63;;;4.51;48.08
80164;BME280;69489;55.130;61.268;2023-04-19T01:24:55;99938.34;;;4.67;47.94
80164;BME280;69489;55.130;61.268;2023-04-19T01:27:21;99939.03;;;4.80;48.10
80164;BME280;69489;55.130;61.268;2023-04-19T01:29:48;99937.78;;;4.96;46.75
80164;BME280;69489;55.130;61.268;2023-04-19T01:32:14;99940.66;;;5.04;47.61
80164;BME280;69489;55.130;61.268;2023-04-19T01:34:42;99940.16;;;5.10;47.34
80164;BME280;69489;55.130;61.268;2023-04-19T01:37:08;99951.31;;;5.24;47.12
80164;BME280;69489;55.130;61.268;2023-04-19T01:39:33;99948.31;;;5.28;46.77
80164;BME280;69489;55.130;61.268;2023-04-19T01:41:59;99947.19;;;5.42;46.27
80164;BME280;69489;55.130;61.268;2023-04-19T01:44:25;99951.28;;;5.56;46.95
80164;BME280;69489;55.130;61.268;2023-04-19T01:46:51;99952.47;;;5.63;45.67
80164;BME280;69489;55.130;61.268;2023-04-19T01:49:17;99947.09;;;5.75;46.44
80164;BME280;69489;55.130;61.268;2023-04-19T01:51:43;99948.56;;;5.88;45.60
80164;BME280;69489;55.130;61.268;2023-04-19T01:54:08;99951.88;;;6.02;45.26
80164;BME280;69489;55.130;61.268;2023-04-19T01:56:34;99963.59;;;6.19;45.49
80164;BME280;69489;55.130;61.268;2023-04-19T01:59:00;99951.72;;;6.34;45.30
80164;BME280;69489;55.130;61.268;2023-04-19T02:01:26;99959.00;;;6.52;44.60
80164;BME280;69489;55.130;61.268;2023-04-19T02:03:52;99961.81;;;6.70;44.65
80164;BME280;69489;55.130;61.268;2023-04-19T02:06:17;99967.97;;;6.90;43.59
80164;BME280;69489;55.130;61.268;2023-04-19T02:08:43;99963.81;;;7.07;43.40
80164;BME280;69489;55.130;61.268;2023-04-19T02:11:10;99969.94;;;7.17;42.85
80164;BME280;69489;55.130;61.268;2023-04-19T02:13:39;99968.28;;;7.36;41.82
80164;BME280;69489;55.130;61.268;2023-04-19T02:16:05;99968.13;;;7.57;42.31
80164;BME280;69489;55.130;61.268;2023-04-19T02:18:32;99975.75;;;7.79;41.21
80164;BME280;69489;55.130;61.268;2023-04-19T02:21:00;99968.25;;;8.22;40.83
80164;BME280;69489;55.130;61.268;2023-04-19T02:23:26;99970.59;;;8.91;40.38
80164;BME280;69489;55.130;61.268;2023-04-19T02:25:52;99961.16;;;9.68;39.12
80164;BME280;69489;55.130;61.268;2023-04-19T02:28:18;99967.44;;;10.38;37.42
80164;BME280;69489;55.130;61.268;2023-04-19T02:30:43;99963.97;;;10.96;37.12
80164;BME280;69489;55.130;61.268;2023-04-19T02:33:09;99967.50;;;11.13;36.49
80164;BME280;69489;55.130;61.268;2023-04-19T02:35:35;99973.59;;;10.97;36.17
80164;BME280;69489;55.130;61.268;2023-04-19T02:38:02;99968.44;;;10.88;35.99
80164;BME280;69489;55.130;61.268;2023-04-19T02:40:28;99980.63;;;11.40;36.05
80164;BME280;69489;55.130;61.268;2023-04-19T02:42:53;99980.81;;;11.71;34.98
80164;BME280;69489;55.130;61.268;2023-04-19T02:45:19;99974.72;;;12.35;33.94
80164;BME280;69489;55.130;61.268;2023-04-19T02:47:45;99972.75;;;13.00;32.10
80164;BME280;69489;55.130;61.268;2023-04-19T02:50:12;99978.50;;;13.43;31.71
80164;BME280;69489;55.130;61.268;2023-04-19T02:52:38;99986.00;;;14.00;31.13
80164;BME280;69489;55.130;61.268;2023-04-19T02:55:05;99982.69;;;14.43;29.51
80164;BME280;69489;55.130;61.268;2023-04-19T02:57:30;99988.88;;;15.32;30.05
80164;BME280;69489;55.130;61.268;2023-04-19T02:59:56;99987.28;;;15.37;27.66
80164;BME280;69489;55.130;61.268;2023-04-19T03:02:24;99985.44;;;15.59;27.97
80164;BME280;69489;55.130;61.268;2023-04-19T03:04:49;99985.28;;;16.52;28.15
80164;BME280;69489;55.130;61.268;2023-04-19T03:07:15;99989.47;;;16.68;27.22
80164;BME280;69489;55.130;61.268;2023-04-19T03:09:41;99990.00;;;16.99;26.62
80164;BME280;69489;55.130;61.268;2023-04-19T03:12:07;99988.47;;;17.31;25.09
80164;BME280;69489;55.130;61.268;2023-04-19T03:14:33;99990.75;;;17.48;24.75
80164;BME280;69489;55.130;61.268;2023-04-19T03:16:59;99988.06;;;17.74;24.16
80164;BME280;69489;55.130;61.268;2023-04-19T03:19:24;99994.25;;;18.28;23.36
80164;BME280;69489;55.130;61.268;2023-04-19T03:21:50;99989.63;;;18.56;23.24
80164;BME280;69489;55.130;61.268;2023-04-19T03:24:18;99996.06;;;19.00;22.75
80164;BME280;69489;55.130;61.268;2023-04-19T03:26:43;100002.47;;;19.95;22.24
80164;BME280;69489;55.130;61.268;2023-04-19T03:29:09;100009.91;;;20.80;21.56
80164;BME280;69489;55.130;61.268;2023-04-19T03:31:35;99992.59;;;20.32;20.77
80164;BME280;69489;55.130;61.268;2023-04-19T03:34:01;100003.41;;;20.07;20.57
80164;BME280;69489;55.130;61.268;2023-04-19T03:36:27;100003.31;;;19.95;20.73
80164;BME280;69489;55.130;61.268;2023-04-19T03:38:53;100012.19;;;20.21;20.39
80164;BME280;69489;55.130;61.268;2023-04-19T03:41:24;100022.16;;;20.39;20.56
80164;BME280;69489;55.130;61.268;2023-04-19T03:43:50;100018.88;;;20.55;20.63
80164;BME280;69489;55.130;61.268;2023-04-19T03:46:16;100016.97;;;20.19;20.73
80164;BME280;69489;55.130;61.268;2023-04-19T03:48:41;100016.31;;;20.23;20.81
80164;BME280;69489;55.130;61.268;2023-04-19T03:51:07;100021.28;;;20.64;20.08
80164;BME280;69489;55.130;61.268;2023-04-19T03:53:33;100017.47;;;20.90;19.54
80164;BME280;69489;55.130;61.268;2023-04-19T03:55:59;100018.91;;;21.04;19.60
80164;BME280;69489;55.130;61.268;2023-04-19T03:58:25;100023.41;;;21.41;19.58
80164;BME280;69489;55.130;61.268;2023-04-19T04:00:51;100015.06;;;21.96;18.83
80164;BME280;69489;55.130;61.268;2023-04-19T04:03:18;100021.28;;;21.97;18.92
80164;BME280;69489;55.130;61.268;2023-04-19T04:05:44;100029.88;;;22.06;18.93
80164;BME280;69489;55.130;61.268;2023-04-19T04:08:10;100025.84;;;22.79;18.19
80164;BME280;69489;55.130;61.268;2023-04-19T04:10:35;100026.72;;;23.71;18.14
80164;BME280;69489;55.130;61.268;2023-04-19T04:13:01;100031.84;;;24.02;17.68
80164;BME280;69489;55.130;61.268;2023-04-19T04:15:27;100031.09;;;24.06;17.29
80164;BME280;69489;55.130;61.268;2023-04-19T04:17:53;100039.59;;;23.93;16.80
80164;BME280;69489;55.130;61.268;2023-04-19T04:20:19;100025.75;;;23.77;16.78
80164;BME280;69489;55.130;61.268;2023-04-19T04:22:44;100026.66;;;23.66;16.72
80164;BME280;69489;55.130;61.268;2023-04-19T04:25:11;100040.19;;;23.66;17.25
80164;BME280;69489;55.130;61.268;2023-04-19T04:27:37;100042.59;;;24.70;17.58
80164;BME280;69489;55.130;61.268;2023-04-19T04:30:06;100048.69;;;23.41;16.87
80164;BME280;69489;55.130;61.268;2023-04-19T04:32:33;100038.22;;;23.16;17.05
80164;BME280;69489;55.130;61.268;2023-04-19T04:35:03;100052.53;;;23.28;17.33
80164;BME280;69489;55.130;61.268;2023-04-19T04:37:33;100043.69;;;22.40;17.46
80164;BME280;69489;55.130;61.268;2023-04-19T04:40:00;100054.38;;;21.08;18.44
80164;BME280;69489;55.130;61.268;2023-04-19T04:42:26;100054.66;;;20.00;19.20
80164;BME280;69489;55.130;61.268;2023-04-19T04:44:56;100044.19;;;19.85;19.38
80164;BME280;69489;55.130;61.268;2023-04-19T04:47:23;100051.31;;;18.96;20.11
80164;BME280;69489;55.130;61.268;2023-04-19T04:49:48;100060.97;;;19.17;20.22
80164;BME280;69489;55.130;61.268;2023-04-19T04:52:14;100053.59;;;20.45;19.53
80164;BME280;69489;55.130;61.268;2023-04-19T04:54:41;100052.22;;;21.28;18.81
80164;BME280;69489;55.130;61.268;2023-04-19T04:57:07;100062.78;;;21.00;18.37
80164;BME280;69489;55.130;61.268;2023-04-19T04:59:33;100055.81;;;20.11;19.46
80164;BME280;69489;55.130;61.268;2023-04-19T05:01:59;100060.31;;;19.60;19.98
80164;BME280;69489;55.130;61.268;2023-04-19T05:04:24;100062.34;;;18.74;20.52
80164;BME280;69489;55.130;61.268;2023-04-19T05:06:50;100057.88;;;18.28;20.86
80164;BME280;69489;55.130;61.268;2023-04-19T05:09:16;100053.34;;;17.82;21.67
80164;BME280;69489;55.130;61.268;2023-04-19T05:11:42;100050.84;;;17.67;21.67
80164;BME280;69489;55.130;61.268;2023-04-19T05:14:08;100056.53;;;17.23;21.89
80164;BME280;69489;55.130;61.268;2023-04-19T05:16:34;100057.41;;;17.44;22.08
80164;BME280;69489;55.130;61.268;2023-04-19T05:18:59;100059.19;;;17.17;21.73
80164;BME280;69489;55.130;61.268;2023-04-19T05:21:25;100056.22;;;16.92;21.96
80164;BME280;69489;55.130;61.268;2023-04-19T05:23:52;100056.81;;;16.52;22.46
80164;BME280;69489;55.130;61.268;2023-04-19T05:26:20;100061.28;;;16.45;22.79
80164;BME280;69489;55.130;61.268;2023-04-19T05:28:46;100069.94;;;16.47;22.95
80164;BME280;69489;55.130;61.268;2023-04-19T05:31:12;100070.81;;;16.54;22.83
80164;BME280;69489;55.130;61.268;2023-04-19T05:33:38;100069.00;;;16.26;23.19
80164;BME280;69489;55.130;61.268;2023-04-19T05:36:04;100070.13;;;15.89;23.03
80164;BME280;69489;55.130;61.268;2023-04-19T05:38:30;100062.19;;;15.59;23.60
80164;BME280;69489;55.130;61.268;2023-04-19T05:40:55;100067.09;;;15.77;23.67
80164;BME280;69489;55.130;61.268;2023-04-19T05:43:21;100069.88;;;15.84;23.68
80164;BME280;69489;55.130;61.268;2023-04-19T05:45:48;100076.09;;;15.91;23.96
80164;BME280;69489;55.130;61.268;2023-04-19T05:48:13;100072.06;;;15.58;24.30
80164;BME280;69489;55.130;61.268;2023-04-19T05:50:39;100073.94;;;15.21;24.60
80164;BME280;69489;55.130;61.268;2023-04-19T05:53:05;100068.34;;;14.86;25.12
80164;BME280;69489;55.130;61.268;2023-04-19T05:55:31;100077.69;;;14.61;25.73
80164;BME280;69489;55.130;61.268;2023-04-19T05:57:59;100073.34;;;14.89;25.97
80164;BME280;69489;55.130;61.268;2023-04-19T06:00:25;100077.66;;;14.90;25.41
80164;BME280;69489;55.130;61.268;2023-04-19T06:02:52;100071.56;;;14.82;25.72
80164;BME280;69489;55.130;61.268;2023-04-19T06:05:18;100073.22;;;15.13;25.38
80164;BME280;69489;55.130;61.268;2023-04-19T06:07:44;100076.81;;;15.20;25.61
80164;BME280;69489;55.130;61.268;2023-04-19T06:10:10;100073.75;;;15.59;25.38
80164;BME280;69489;55.130;61.268;2023-04-19T06:12:36;100068.91;;;15.91;24.87
80164;BME280;69489;55.130;61.268;2023-04-19T06:15:02;100072.66;;;16.19;24.50
80164;BME280;69489;55.130;61.268;2023-04-19T06:17:29;100067.69;;;16.15;24.70
80164;BME280;69489;55.130;61.268;2023-04-19T06:19:55;100072.88;;;16.24;24.44
80164;BME280;69489;55.130;61.268;2023-04-19T06:22:21;100064.25;;;16.00;24.80
80164;BME280;69489;55.130;61.268;2023-04-19T06:24:47;100072.47;;;15.98;24.37
80164;BME280;69489;55.130;61.268;2023-04-19T06:27:14;100065.44;;;15.54;24.81
80164;BME280;69489;55.130;61.268;2023-04-19T06:29:41;100062.38;;;15.57;24.81
80164;BME280;69489;55.130;61.268;2023-04-19T06:32:08;100062.31;;;15.72;25.08
80164;BME280;69489;55.130;61.268;2023-04-19T06:34:34;100063.56;;;15.91;24.85
80164;BME280;69489;55.130;61.268;2023-04-19T06:37:00;100068.41;;;16.31;24.46
80164;BME280;69489;55.130;61.268;2023-04-19T06:39:25;100062.88;;;16.67;23.82
80164;BME280;69489;55.130;61.268;2023-04-19T06:41:52;100073.00;;;16.44;24.09
80164;BME280;69489;55.130;61.268;2023-04-19T06:44:17;100074.78;;;16.30;24.26
80164;BME280;69489;55.130;61.268;2023-04-19T06:46:44;100077.66;;;16.28;23.84
80164;BME280;69489;55.130;61.268;2023-04-19T06:49:09;100063.38;;;16.21;23.93
80164;BME280;69489;55.130;61.268;2023-04-19T06:51:38;100057.34;;;16.12;24.49
80164;BME280;69489;55.130;61.268;2023-04-19T06:54:04;100064.38;;;15.92;24.51
80164;BME280;69489;55.130;61.268;2023-04-19T06:56:39;100080.88;;;15.95;24.81
80164;BME280;69489;55.130;61.268;2023-04-19T06:59:06;100072.78;;;16.10;24.51
80164;BME280;69489;55.130;61.268;2023-04-19T07:01:32;100060.50;;;15.94;24.88
80164;BME280;69489;55.130;61.268;2023-04-19T07:03:58;100066.72;;;16.02;24.50
80164;BME280;69489;55.130;61.268;2023-04-19T07:06:24;100069.81;;;16.27;24.33
80164;BME280;69489;55.130;61.268;2023-04-19T07:08:51;100054.09;;;15.95;24.76
80164;BME280;69489;55.130;61.268;2023-04-19T07:11:17;100064.31;;;16.07;24.41
80164;BME280;69489;55.130;61.268;2023-04-19T07:13:43;100054.09;;;16.17;24.11
80164;BME280;69489;55.130;61.268;2023-04-19T07:16:08;100048.09;;;16.15;24.11
80164;BME280;69489;55.130;61.268;2023-04-19T07:18:34;100050.06;;;16.28;24.31
80164;BME280;69489;55.130;61.268;2023-04-19T07:21:00;100051.41;;;16.17;24.57
80164;BME280;69489;55.130;61.268;2023-04-19T07:23:26;100046.13;;;16.30;23.69
80164;BME280;69489;55.130;61.268;2023-04-19T07:25:51;100054.72;;;16.47;23.44
80164;BME280;69489;55.130;61.268;2023-04-19T07:28:17;100053.00;;;16.11;24.04
80164;BME280;69489;55.130;61.268;2023-04-19T07:30:43;100043.31;;;15.82;24.15
80164;BME280;69489;55.130;61.268;2023-04-19T07:33:10;100049.91;;;15.64;24.68
80164;BME280;69489;55.130;61.268;2023-04-19T07:35:38;100042.44;;;15.60;24.85
80164;BME280;69489;55.130;61.268;2023-04-19T07:38:04;100053.72;;;14.97;25.12
80164;BME280;69489;55.130;61.268;2023-04-19T07:40:29;100030.50;;;14.83;25.50
80164;BME280;69489;55.130;61.268;2023-04-19T07:42:55;100035.47;;;14.86;25.65
80164;BME280;69489;55.130;61.268;2023-04-19T07:45:21;100029.38;;;14.32;25.73
80164;BME280;69489;55.130;61.268;2023-04-19T07:47:47;100037.63;;;14.22;26.54
80164;BME280;69489;55.130;61.268;2023-04-19T07:50:13;100055.06;;;13.80;26.68
80164;BME280;69489;55.130;61.268;2023-04-19T07:52:39;100040.81;;;13.88;26.80
80164;BME280;69489;55.130;61.268;2023-04-19T07:55:05;100031.22;;;13.56;26.89
80164;BME280;69489;55.130;61.268;2023-04-19T07:57:31;100025.81;;;13.87;27.34
80164;BME280;69489;55.130;61.268;2023-04-19T07:59:57;100031.63;;;14.06;26.94
80164;BME280;69489;55.130;61.268;2023-04-19T08:02:26;100033.66;;;14.03;26.63
80164;BME280;69489;55.130;61.268;2023-04-19T08:04:53;100025.16;;;13.85;27.14
80164;BME280;69489;55.130;61.268;2023-04-19T08:07:19;100017.06;;;13.93;26.81
80164;BME280;69489;55.130;61.268;2023-04-19T08:09:45;100022.78;;;13.90;26.41
80164;BME280;69489;55.130;61.268;2023-04-19T08:12:11;100027.69;;;13.78;27.36
80164;BME280;69489;55.130;61.268;2023-04-19T08:14:36;100023.13;;;13.87;26.72
80164;BME280;69489;55.130;61.268;2023-04-19T08:17:03;100013.81;;;13.68;26.90
80164;BME280;69489;55.130;61.268;2023-04-19T08:19:31;100024.94;;;13.72;27.32
80164;BME280;69489;55.130;61.268;2023-04-19T08:21:57;100027.78;;;13.70;26.74
80164;BME280;69489;55.130;61.268;2023-04-19T08:24:22;100023.09;;;13.49;27.20
80164;BME280;69489;55.130;61.268;2023-04-19T08:26:48;100022.03;;;13.58;27.18
80164;BME280;69489;55.130;61.268;2023-04-19T08:29:19;100026.28;;;13.67;27.03
80164;BME280;69489;55.130;61.268;2023-04-19T08:31:45;100027.53;;;13.57;26.94
80164;BME280;69489;55.130;61.268;2023-04-19T08:34:11;100021.19;;;13.81;26.95
80164;BME280;69489;55.130;61.268;2023-04-19T08:36:37;100021.56;;;13.78;27.54
80164;BME280;69489;55.130;61.268;2023-04-19T08:39:03;100031.84;;;13.81;27.11
80164;BME280;69489;55.130;61.268;2023-04-19T08:41:32;100020.59;;;13.71;26.88
80164;BME280;69489;55.130;61.268;2023-04-19T08:43:58;100018.53;;;13.58;26.76
80164;BME280;69489;55.130;61.268;2023-04-19T08:46:25;100013.16;;;13.43;27.74
80164;BME280;69489;55.130;61.268;2023-04-19T08:48:52;100018.28;;;13.67;27.27
80164;BME280;69489;55.130;61.268;2023-04-19T08:51:18;100015.75;;;13.51;27.51
80164;BME280;69489;55.130;61.268;2023-04-19T08:53:44;100034.59;;;13.49;27.11
80164;BME280;69489;55.130;61.268;2023-04-19T08:56:12;100024.00;;;13.41;27.28
80164;BME280;69489;55.130;61.268;2023-04-19T08:58:38;100009.06;;;13.55;27.41
80164;BME280;69489;55.130;61.268;2023-04-19T09:01:05;100018.13;;;13.46;27.67
80164;BME280;69489;55.130;61.268;2023-04-19T09:03:31;100022.31;;;13.63;27.54
80164;BME280;69489;55.130;61.268;2023-04-19T09:05:57;100021.56;;;13.55;27.61
80164;BME280;69489;55.130;61.268;2023-04-19T09:08:31;100023.78;;;13.20;27.93
80164;BME280;69489;55.130;61.268;2023-04-19T09:10:59;100011.84;;;13.07;28.24
80164;BME280;69489;55.130;61.268;2023-04-19T09:13:26;100023.19;;;13.01;28.64
80164;BME280;69489;55.130;61.268;2023-04-19T09:15:53;100022.91;;;12.96;28.38
80164;BME280;69489;55.130;61.268;2023-04-19T09:18:22;100014.13;;;13.19;28.26
80164;BME280;69489;55.130;61.268;2023-04-19T09:20:49;100016.34;;;13.30;27.92
80164;BME280;69489;55.130;61.268;2023-04-19T09:23:18;100012.59;;;13.24;28.17
80164;BME280;69489;55.130;61.268;2023-04-19T09:26:13;100018.94;;;13.46;27.90
80164;BME280;69489;55.130;61.268;2023-04-19T09:28:38;100017.72;;;13.34;28.22
80164;BME280;69489;55.130;61.268;2023-04-19T09:31:11;100015.00;;;13.42;28.04
80164;BME280;69489;55.130;61.268;2023-04-19T09:33:40;100010.00;;;13.62;27.84
80164;BME280;69489;55.130;61.268;2023-04-19T09:36:07;100019.50;;;13.65;27.93
80164;BME280;69489;55.130;61.268;2023-04-19T09:38:45;100017.03;;;13.78;27.76
80164;BME280;69489;55.130;61.268;2023-04-19T09:41:12;100014.84;;;13.59;27.96
80164;BME280;69489;55.130;61.268;2023-04-19T09:43:37;100020.78;;;13.46;28.21
80164;BME280;69489;55.130;61.268;2023-04-19T09:46:03;100008.09;;;13.48;28.31
80164;BME280;69489;55.130;61.268;2023-04-19T09:48:29;100019.09;;;13.53;28.05
80164;BME280;69489;55.130;61.268;2023-04-19T09:50:58;100011.19;;;13.60;28.21
80164;BME280;69489;55.130;61.268;2023-04-19T09:53:26;100010.97;;;13.70;28.24
80164;BME280;69489;55.130;61.268;2023-04-19T09:55:52;100006.97;;;13.65;27.81
80164;BME280;69489;55.130;61.268;2023-04-19T09:58:19;100000.28;;;13.70;27.91
80164;BME280;69489;55.130;61.268;2023-04-19T10:00:45;99997.59;;;13.93;28.10
80164;BME280;69489;55.130;61.268;2023-04-19T10:03:14;99996.63;;;13.85;28.25
80164;BME280;69489;55.130;61.268;2023-04-19T10:05:41;100011.75;;;13.93;28.11
80164;BME280;69489;55.130;61.268;2023-04-19T10:08:09;99999.97;;;14.02;27.97
80164;BME280;69489;55.130;61.268;2023-04-19T10:10:35;99994.03;;;14.15;28.18
80164;BME280;69489;55.130;61.268;2023-04-19T10:13:04;99998.69;;;14.13;27.64
80164;BME280;69489;55.130;61.268;2023-04-19T10:15:33;99986.81;;;14.01;28.13
80164;BME280;69489;55.130;61.268;2023-04-19T10:18:01;99997.41;;;13.94;28.15
80164;BME280;69489;55.130;61.268;2023-04-19T10:23:08;99970.59;;;13.88;28.21
80164;BME280;69489;55.130;61.268;2023-04-19T10:25:36;99986.91;;;13.93;27.87
80164;BME280;69489;55.130;61.268;2023-04-19T10:28:02;99972.84;;;13.99;27.73
80164;BME280;69489;55.130;61.268;2023-04-19T10:30:28;99975.34;;;13.62;28.33
80164;BME280;69489;55.130;61.268;2023-04-19T10:32:57;99972.72;;;13.31;28.80
80164;BME280;69489;55.130;61.268;2023-04-19T10:35:43;99977.50;;;13.12;28.93
80164;BME280;69489;55.130;61.268;2023-04-19T10:41:02;99972.53;;;13.32;28.83
80164;BME280;69489;55.130;61.268;2023-04-19T10:43:37;99974.25;;;13.25;28.75
80164;BME280;69489;55.130;61.268;2023-04-19T10:46:13;99973.78;;;12.98;29.18
80164;BME280;69489;55.130;61.268;2023-04-19T10:48:58;99970.03;;;13.08;29.49
80164;BME280;69489;55.130;61.268;2023-04-19T10:51:28;99970.66;;;13.18;28.86
80164;BME280;69489;55.130;61.268;2023-04-19T10:53:58;99961.81;;;13.18;29.01
80164;BME280;69489;55.130;61.268;2023-04-19T11:01:52;99964.88;;;13.38;29.28
80164;BME280;69489;55.130;61.268;2023-04-19T11:09:27;99949.34;;;12.87;29.90
80164;BME280;69489;55.130;61.268;2023-04-19T11:12:09;99951.31;;;13.16;29.83
80164;BME280;69489;55.130;61.268;2023-04-19T11:14:38;99952.63;;;13.20;29.22
80164;BME280;69489;55.130;61.268;2023-04-19T11:20:06;99948.25;;;13.04;29.59
80164;BME280;69489;55.130;61.268;2023-04-19T11:22:34;99954.16;;;12.91;29.70
80164;BME280;69489;55.130;61.268;2023-04-19T11:27:35;99952.97;;;12.71;30.01
80164;BME280;69489;55.130;61.268;2023-04-19T11:32:29;99946.56;;;12.80;29.68
80164;BME280;69489;55.130;61.268;2023-04-19T11:35:03;99947.31;;;12.97;29.63
80164;BME280;69489;55.130;61.268;2023-04-19T11:37:33;99940.72;;;13.08;29.58
80164;BME280;69489;55.130;61.268;2023-04-19T11:39:59;99941.88;;;13.13;29.60
80164;BME280;69489;55.130;61.268;2023-04-19T11:42:28;99944.56;;;13.28;29.57
80164;BME280;69489;55.130;61.268;2023-04-19T11:44:56;99949.97;;;13.20;29.29
80164;BME280;69489;55.130;61.268;2023-04-19T11:47:26;99940.53;;;13.32;29.29
80164;BME280;69489;55.130;61.268;2023-04-19T11:49:55;99936.56;;;13.37;29.22
80164;BME280;69489;55.130;61.268;2023-04-19T11:52:25;99938.78;;;13.48;29.32
80164;BME280;69489;55.130;61.268;2023-04-19T11:54:54;99938.25;;;13.29;29.45
80164;BME280;69489;55.130;61.268;2023-04-19T11:57:27;99939.50;;;13.19;29.70
80164;BME280;69489;55.130;61.268;2023-04-19T12:00:07;99941.19;;;13.11;29.54
80164;BME280;69489;55.130;61.268;2023-04-19T12:02:42;99942.06;;;13.35;29.45
80164;BME280;69489;55.130;61.268;2023-04-19T12:05:13;99936.13;;;13.48;29.44
80164;BME280;69489;55.130;61.268;2023-04-19T12:08:01;99934.25;;;13.25;29.44
80164;BME280;69489;55.130;61.268;2023-04-19T12:10:31;99934.22;;;13.10;29.87
80164;BME280;69489;55.130;61.268;2023-04-19T12:12:57;99932.91;;;13.06;29.56
80164;BME280;69489;55.130;61.268;2023-04-19T12:15:42;99932.56;;;13.09;30.00
80164;BME280;69489;55.130;61.268;2023-04-19T12:18:09;99933.19;;;13.11;29.96
80164;BME280;69489;55.130;61.268;2023-04-19T12:20:36;99933.34;;;13.18;29.77
80164;BME280;69489;55.130;61.268;2023-04-19T12:23:04;99919.94;;;13.26;29.78
80164;BME280;69489;55.130;61.268;2023-04-19T12:25:32;99922.50;;;13.20;30.07
80164;BME280;69489;55.130;61.268;2023-04-19T12:27:59;99928.59;;;13.05;30.05
80164;BME280;69489;55.130;61.268;2023-04-19T12:30:26;99925.75;;;13.07;29.80
80164;BME280;69489;55.130;61.268;2023-04-19T12:32:53;99923.09;;;13.07;29.70
80164;BME280;69489;55.130;61.268;2023-04-19T12:35:26;99924.22;;;13.12;29.76
80164;BME280;69489;55.130;61.268;2023-04-19T12:37:54;99910.44;;;13.24;29.64
80164;BME280;69489;55.130;61.268;2023-04-19T12:40:20;99915.69;;;13.40;29.62
80164;BME280;69489;55.130;61.268;2023-04-19T12:42:46;99913.44;;;13.29;29.52
80164;BME280;69489;55.130;61.268;2023-04-19T12:45:12;99915.56;;;13.10;29.77
80164;BME280;69489;55.130;61.268;2023-04-19T12:47:39;99917.28;;;13.03;30.11
80164;BME280;69489;55.130;61.268;2023-04-19T12:50:05;99911.84;;;13.43;29.64
80164;BME280;69489;55.130;61.268;2023-04-19T12:52:31;99902.53;;;13.15;30.07
80164;BME280;69489;55.130;61.268;2023-04-19T12:54:57;99897.66;;;13.19;29.47
80164;BME280;69489;55.130;61.268;2023-04-19T12:57:23;99911.34;;;12.93;30.20
80164;BME280;69489;55.130;61.268;2023-04-19T12:59:49;99904.78;;;12.80;30.47
80164;BME280;69489;55.130;61.268;2023-04-19T13:02:15;99899.16;;;12.75;30.40
80164;BME280;69489;55.130;61.268;2023-04-19T13:04:41;99907.38;;;12.66;30.58
80164;BME280;69489;55.130;61.268;2023-04-19T13:07:06;99900.50;;;12.71;30.23
80164;BME280;69489;55.130;61.268;2023-04-19T13:09:32;99901.56;;;12.62;30.52
80164;BME280;69489;55.130;61.268;2023-04-19T13:11:58;99896.31;;;12.46;30.63